Terminal Aerodrome Forecast
Issued by NWS

Home | Current Version | Previous Version | Text Only | Print | Product List | Glossary On
Versions: 1 2 3 4 5 6 7 8 9 10 11 12 13 14 15
000
FTUS43 KILX 241134
TAFBMI
TAF
KBMI 241134Z 2412/2512 12008KT P6SM OVC080
     FM241900 18016G25KT 6SM -SHRA VCTS BKN025CB
     FM250100 18015KT P6SM SCT025 BKN050
     FM250400 16012KT 5SM -SHRA VCTS BKN020CB=

USA.gov is the U.S. government's official web portal to all federal, state and local government web resources and services.